Leipsic, Delaware
Current Conditions -  °F | °C
As of 9:58 AM on Tuesday 21 Oct 2014 (Local Time) from KDOV Reporting Station
Broken Clouds Broken Clouds  
Wind Chill: 61°   Ceiling: 13000
Heat Index: 61°   Visibility: 10mi
Dew Point: 55°   Wind: 8mph
Humidity: 80%   Direction: 220°SW
Pressure: 29.86"   Gusts: NA
Location:  39.1624°N, 75.5199°W
Report Text: KDOV 211358Z AUTO 22007KT 10SM BKN130 16/13 A2986 RMK AO2 SLP115 T01610126
Loading
Personal Weather Stations






























Interactive Weather Map
Tropical Storm Tracking
New forecast layout! Learn more

10-Day Weather Forecast

Advertisements
Track Severe Weather on mobile